createdAt,value
2022-10-20T00:01:24.565Z,13.57
2022-10-20T00:06:32.436Z,13.39
2022-10-20T00:11:35.024Z,13.18
2022-10-20T00:16:39.289Z,13.15
2022-10-20T00:21:41.630Z,13.54
2022-10-20T00:26:43.971Z,13.49
2022-10-20T00:31:46.351Z,13.14
2022-10-20T00:36:51.254Z,13.09
2022-10-20T00:41:53.916Z,13.00
2022-10-20T00:46:57.703Z,12.95
2022-10-20T00:52:00.152Z,13.09
2022-10-20T01:02:25.315Z,13.35
2022-10-20T01:07:27.701Z,13.44
2022-10-20T01:12:35.823Z,13.09
2022-10-20T01:17:47.273Z,13.05
2022-10-20T01:23:14.002Z,13.28
2022-10-20T01:28:37.646Z,13.11
2022-10-20T01:33:58.524Z,12.77
2022-10-20T01:39:01.155Z,12.59
2022-10-20T01:44:08.565Z,12.61
2022-10-20T01:49:12.788Z,12.69
2022-10-20T01:54:27.426Z,12.73
2022-10-20T01:59:57.289Z,13.42
2022-10-20T02:05:05.505Z,13.52
2022-10-20T02:10:18.655Z,13.57
2022-10-20T02:15:25.884Z,13.96
2022-10-20T02:20:31.386Z,13.64
2022-10-20T02:25:34.630Z,14.00
2022-10-20T02:30:38.486Z,14.07
2022-10-20T02:35:50.361Z,13.73
2022-10-20T02:40:52.679Z,13.59
2022-10-20T02:45:55.003Z,13.86
2022-10-20T02:50:58.199Z,13.79
2022-10-20T02:56:00.672Z,13.36
2022-10-20T03:01:03.619Z,13.52
2022-10-20T03:06:11.198Z,13.35
2022-10-20T03:11:13.545Z,13.30
2022-10-20T03:16:15.977Z,13.44
2022-10-20T03:21:18.334Z,13.45
2022-10-20T03:26:20.682Z,13.58
2022-10-20T03:31:23.044Z,13.74
2022-10-20T03:36:25.669Z,13.68
2022-10-20T03:41:28.003Z,13.83
2022-10-20T03:46:30.374Z,13.96
2022-10-20T03:51:32.739Z,13.86
2022-10-20T03:56:35.091Z,13.87
2022-10-20T04:01:37.610Z,13.87
2022-10-20T04:06:40.359Z,13.95
2022-10-20T04:11:42.924Z,14.05
2022-10-20T04:16:45.287Z,14.00
2022-10-20T04:21:47.673Z,14.14
2022-10-20T04:32:12.462Z,13.74
2022-10-20T04:37:14.806Z,13.41
2022-10-20T04:42:20.532Z,13.29
2022-10-20T04:47:23.016Z,13.21
2022-10-20T04:52:25.422Z,13.14
2022-10-20T04:57:27.912Z,13.03
2022-10-20T05:02:31.091Z,13.06
2022-10-20T05:07:33.648Z,12.94
2022-10-20T05:12:36.777Z,12.90
2022-10-20T05:17:39.728Z,13.09
2022-10-20T05:22:42.293Z,13.11
2022-10-20T05:27:44.753Z,13.07
2022-10-20T05:32:47.307Z,13.07
2022-10-20T05:37:49.729Z,13.21
2022-10-20T05:42:52.085Z,13.18
2022-10-20T05:47:54.438Z,13.11
2022-10-20T05:52:57.059Z,13.21
2022-10-20T05:57:59.402Z,13.40
2022-10-20T06:03:01.928Z,13.20
2022-10-20T06:08:04.479Z,13.16
2022-10-20T06:13:07.026Z,13.23
2022-10-20T06:18:09.925Z,13.19
2022-10-20T06:23:12.334Z,13.06
2022-10-20T06:28:14.787Z,13.01
2022-10-20T06:33:17.150Z,13.19
2022-10-20T06:38:19.546Z,13.22
2022-10-20T06:43:22.270Z,13.22
2022-10-20T06:48:24.885Z,13.41
2022-10-20T06:53:28.415Z,13.43
2022-10-20T06:58:31.089Z,13.33
2022-10-20T07:03:35.908Z,13.32
2022-10-20T07:08:38.668Z,13.19
2022-10-20T07:13:41.804Z,13.21
2022-10-20T07:24:07.743Z,13.64
2022-10-20T07:29:11.923Z,13.89
2022-10-20T07:34:31.229Z,14.00
2022-10-20T07:39:33.794Z,14.10
2022-10-20T07:44:36.315Z,14.29
2022-10-20T07:49:46.136Z,14.46
2022-10-20T07:54:48.662Z,14.54
2022-10-20T07:59:51.072Z,14.90
2022-10-20T08:04:54.039Z,15.27
2022-10-20T08:09:58.811Z,15.61
2022-10-20T08:15:01.302Z,15.59
2022-10-20T08:20:20.430Z,15.63
2022-10-20T08:25:25.218Z,15.43
2022-10-20T08:30:27.578Z,15.14
2022-10-20T08:35:30.032Z,15.63
2022-10-20T08:40:42.197Z,16.65
2022-10-20T08:45:45.062Z,16.46
2022-10-20T08:50:50.276Z,16.85
2022-10-20T08:55:54.672Z,16.89
2022-10-20T09:00:59.512Z,16.23
2022-10-20T09:06:12.819Z,16.34
2022-10-20T09:11:25.722Z,16.85
2022-10-20T09:16:41.997Z,17.15
2022-10-20T09:21:50.736Z,16.91
2022-10-20T09:26:58.726Z,16.85
2022-10-20T09:32:16.745Z,17.08
2022-10-20T09:37:24.515Z,17.31
2022-10-20T09:42:31.579Z,17.39
2022-10-20T09:47:35.268Z,16.78
2022-10-20T09:52:47.824Z,16.48
2022-10-20T09:57:50.594Z,16.48
2022-10-20T10:03:09.834Z,16.63
2022-10-20T10:08:16.599Z,16.71
2022-10-20T10:13:25.294Z,17.06
2022-10-20T10:18:27.949Z,17.34
2022-10-20T10:23:36.324Z,17.37
2022-10-20T10:28:41.989Z,17.30
2022-10-20T10:33:44.371Z,17.34
2022-10-20T10:38:46.832Z,17.60
2022-10-20T10:44:30.324Z,17.87
2022-10-20T10:49:43.677Z,17.81
2022-10-20T10:54:56.460Z,17.61
2022-10-20T11:00:10.935Z,17.44
2022-10-20T11:05:22.693Z,17.52
2022-10-20T11:10:34.172Z,17.73
2022-10-20T11:16:06.075Z,17.89
2022-10-20T11:21:43.638Z,18.09
2022-10-20T11:26:52.137Z,18.36
2022-10-20T11:32:12.519Z,18.43
2022-10-20T11:37:52.793Z,18.35
2022-10-20T11:43:11.265Z,18.15
2022-10-20T11:48:24.779Z,17.97
2022-10-20T11:53:39.680Z,17.83
2022-10-20T11:59:00.892Z,17.95
2022-10-20T12:04:35.668Z,18.07
2022-10-20T12:10:00.135Z,17.87
2022-10-20T12:15:18.922Z,17.92
2022-10-20T12:20:22.127Z,18.24
2022-10-20T12:25:27.600Z,18.16
2022-10-20T12:30:38.898Z,18.12
2022-10-20T12:36:19.667Z,18.00
2022-10-20T12:41:30.010Z,18.04
2022-10-20T12:46:35.771Z,18.08
2022-10-20T12:51:53.592Z,18.05
2022-10-20T12:57:05.975Z,17.75
2022-10-20T13:02:11.257Z,18.19
2022-10-20T13:07:13.636Z,17.99
2022-10-20T13:12:27.050Z,17.92
2022-10-20T13:17:48.420Z,17.71
2022-10-20T13:22:53.654Z,17.47
2022-10-20T13:28:14.711Z,17.76
2022-10-20T13:34:02.649Z,18.03
2022-10-20T13:39:00.350Z,18.19
2022-10-20T13:44:11.926Z,18.24
2022-10-20T13:49:33.366Z,18.49
2022-10-20T13:54:44.685Z,18.26
2022-10-20T13:59:56.828Z,18.37
2022-10-20T14:05:22.059Z,18.13
2022-10-20T14:10:40.505Z,18.12
2022-10-20T14:15:48.962Z,18.02
2022-10-20T14:21:03.443Z,18.23
2022-10-20T14:26:19.736Z,18.19
2022-10-20T14:31:24.453Z,18.16
2022-10-20T14:36:30.072Z,17.62
2022-10-20T14:41:35.771Z,17.68
2022-10-20T14:46:45.806Z,17.82
2022-10-20T14:51:58.867Z,17.69
2022-10-20T14:57:02.577Z,17.44
2022-10-20T15:02:18.672Z,17.51
2022-10-20T15:07:28.705Z,17.30
2022-10-20T15:12:39.816Z,17.88
2022-10-20T15:17:48.608Z,17.70
2022-10-20T15:22:53.480Z,17.70
2022-10-20T15:27:58.936Z,17.45
2022-10-20T15:33:01.325Z,17.39
2022-10-20T15:38:03.720Z,17.43
2022-10-20T15:43:06.590Z,17.56
2022-10-20T15:48:09.127Z,17.77
2022-10-20T15:53:12.875Z,17.65
2022-10-20T15:58:15.532Z,18.14
2022-10-20T16:03:18.970Z,17.75
2022-10-20T16:08:21.328Z,17.75
2022-10-20T16:13:23.725Z,17.25
2022-10-20T16:18:26.247Z,17.00
2022-10-20T16:23:28.722Z,16.93
2022-10-20T16:28:31.141Z,17.34
2022-10-20T16:33:34.549Z,17.68
2022-10-20T16:38:40.111Z,17.17
2022-10-20T16:43:45.499Z,16.67
2022-10-20T16:48:48.462Z,16.82
2022-10-20T16:53:50.973Z,17.01
2022-10-20T16:58:53.383Z,17.12
2022-10-20T17:03:55.758Z,17.29
2022-10-20T17:08:59.516Z,16.93
2022-10-20T17:14:01.999Z,16.82
2022-10-20T17:19:04.614Z,16.69
2022-10-20T17:24:11.525Z,16.72
2022-10-20T17:29:13.961Z,17.59
2022-10-20T17:34:17.619Z,17.26
2022-10-20T17:39:22.053Z,17.11
2022-10-20T17:44:24.496Z,17.36
2022-10-20T17:49:27.953Z,17.29
2022-10-20T17:54:30.286Z,16.62
2022-10-20T17:59:38.288Z,16.61
2022-10-20T18:04:50.624Z,17.00
2022-10-20T18:09:53.513Z,17.42
2022-10-20T18:14:56.147Z,16.79
2022-10-20T18:20:00.063Z,16.58
2022-10-20T18:25:02.591Z,16.81
2022-10-20T18:30:05.583Z,17.29
2022-10-20T18:35:08.349Z,17.38
2022-10-20T18:40:11.627Z,17.14
2022-10-20T18:45:14.143Z,16.88
2022-10-20T18:50:16.770Z,16.38
2022-10-20T18:55:19.203Z,16.26
2022-10-20T19:00:21.612Z,16.54
2022-10-20T19:05:24.172Z,16.51
2022-10-20T19:10:26.532Z,16.22
2022-10-20T19:15:28.906Z,16.16
2022-10-20T19:20:31.420Z,16.09
2022-10-20T19:25:34.347Z,16.29
2022-10-20T19:30:36.863Z,16.27
2022-10-20T19:35:39.568Z,16.40
2022-10-20T19:40:42.162Z,16.18
2022-10-20T19:45:47.823Z,15.98
2022-10-20T19:50:52.410Z,15.88
2022-10-20T19:55:55.186Z,16.20
2022-10-20T20:00:59.384Z,17.16
2022-10-20T20:06:12.321Z,17.37
2022-10-20T20:11:27.443Z,16.85
2022-10-20T20:16:30.728Z,16.98
2022-10-20T20:21:34.807Z,17.06
2022-10-20T20:26:37.750Z,16.41
2022-10-20T20:31:40.351Z,16.43
2022-10-20T20:36:42.866Z,16.47
2022-10-20T20:41:45.214Z,16.23
2022-10-20T20:46:47.557Z,16.03
2022-10-20T20:51:49.951Z,15.91
2022-10-20T20:56:52.388Z,15.71
2022-10-20T21:01:55.119Z,15.90
2022-10-20T21:07:02.220Z,16.12
2022-10-20T21:12:05.358Z,16.46
2022-10-20T21:17:07.760Z,16.42
2022-10-20T21:22:10.382Z,16.38
2022-10-20T21:27:12.906Z,16.10
2022-10-20T21:32:18.501Z,15.90
2022-10-20T21:37:21.418Z,15.76
2022-10-20T21:42:23.825Z,15.75
2022-10-20T21:47:26.201Z,15.92
2022-10-20T21:52:28.834Z,15.67
2022-10-20T21:57:31.235Z,15.71
2022-10-20T22:02:33.594Z,15.84
2022-10-20T22:07:36.279Z,15.51
2022-10-20T22:12:38.992Z,15.45
2022-10-20T22:17:41.897Z,15.67
2022-10-20T22:22:44.321Z,15.51
2022-10-20T22:27:46.695Z,15.49
2022-10-20T22:32:49.032Z,15.53
2022-10-20T22:37:51.460Z,15.30
2022-10-20T22:42:53.825Z,15.33
2022-10-20T22:47:56.206Z,15.57
2022-10-20T22:52:58.596Z,15.43
2022-10-20T22:58:01.014Z,15.29
2022-10-20T23:03:03.420Z,15.20
2022-10-20T23:08:06.368Z,15.16
2022-10-20T23:13:08.703Z,15.15
2022-10-20T23:18:11.312Z,15.14
2022-10-20T23:23:14.155Z,15.31
2022-10-20T23:28:17.374Z,15.52
2022-10-20T23:33:19.797Z,15.43
2022-10-20T23:38:22.179Z,15.29
2022-10-20T23:43:24.648Z,15.26
2022-10-20T23:48:27.337Z,14.92
2022-10-20T23:53:30.028Z,14.74
2022-10-20T23:58:32.413Z,14.58
